sensor_id;sensor_type;location;lat;lon;timestamp;temperature;humidity
5842;DHT22;2947;52.276;9.946;2023-08-21T00:02:20;21.30;1.00
5842;DHT22;2947;52.276;9.946;2023-08-21T00:04:46;21.30;99.90
5842;DHT22;2947;52.276;9.946;2023-08-21T00:07:12;21.30;99.90
5842;DHT22;2947;52.276;9.946;2023-08-21T00:09:37;21.20;99.90
5842;DHT22;2947;52.276;9.946;2023-08-21T00:12:03;21.30;99.90
5842;DHT22;2947;52.276;9.946;2023-08-21T00:14:29;21.20;99.90
5842;DHT22;2947;52.276;9.946;2023-08-21T00:16:55;21.20;99.90
5842;DHT22;2947;52.276;9.946;2023-08-21T00:19:21;21.20;1.00
5842;DHT22;2947;52.276;9.946;2023-08-21T00:21:46;21.60;1.00
5842;DHT22;2947;52.276;9.946;2023-08-21T00:24:13;21.20;99.90
5842;DHT22;2947;52.276;9.946;2023-08-21T00:26:38;21.00;1.00
5842;DHT22;2947;52.276;9.946;2023-08-21T00:29:04;21.00;99.90
5842;DHT22;2947;52.276;9.946;2023-08-21T00:31:30;20.90;99.90
5842;DHT22;2947;52.276;9.946;2023-08-21T00:33:55;20.90;99.90
5842;DHT22;2947;52.276;9.946;2023-08-21T00:36:21;20.80;99.90
5842;DHT22;2947;52.276;9.946;2023-08-21T00:38:47;20.80;7.40
5842;DHT22;2947;52.276;9.946;2023-08-21T00:41:13;20.90;99.90
5842;DHT22;2947;52.276;9.946;2023-08-21T00:43:39;20.80;99.90
5842;DHT22;2947;52.276;9.946;2023-08-21T00:46:05;20.60;1.00
5842;DHT22;2947;52.276;9.946;2023-08-21T00:48:31;21.40;99.90
5842;DHT22;2947;52.276;9.946;2023-08-21T00:50:57;20.50;1.00
5842;DHT22;2947;52.276;9.946;2023-08-21T00:53:24;21.10;1.00
5842;DHT22;2947;52.276;9.946;2023-08-21T00:55:50;20.50;1.00
5842;DHT22;2947;52.276;9.946;2023-08-21T00:58:16;20.50;1.00
5842;DHT22;2947;52.276;9.946;2023-08-21T01:00:45;20.40;99.90
5842;DHT22;2947;52.276;9.946;2023-08-21T01:03:12;22.00;34.60
5842;DHT22;2947;52.276;9.946;2023-08-21T01:05:39;20.40;1.00
5842;DHT22;2947;52.276;9.946;2023-08-21T01:11:27;20.30;99.90
5842;DHT22;2947;52.276;9.946;2023-08-21T01:16:37;20.20;1.00
5842;DHT22;2947;52.276;9.946;2023-08-21T01:19:03;20.20;99.90
5842;DHT22;2947;52.276;9.946;2023-08-21T01:21:34;21.10;1.00
5842;DHT22;2947;52.276;9.946;2023-08-21T01:24:00;20.30;99.90
5842;DHT22;2947;52.276;9.946;2023-08-21T01:26:25;20.20;99.90
5842;DHT22;2947;52.276;9.946;2023-08-21T01:28:51;20.20;1.00
5842;DHT22;2947;52.276;9.946;2023-08-21T01:31:37;20.20;99.90
5842;DHT22;2947;52.276;9.946;2023-08-21T01:34:06;20.20;99.90
5842;DHT22;2947;52.276;9.946;2023-08-21T01:36:34;20.60;1.00
5842;DHT22;2947;52.276;9.946;2023-08-21T01:39:00;20.20;1.00
5842;DHT22;2947;52.276;9.946;2023-08-21T01:41:26;20.00;1.00
5842;DHT22;2947;52.276;9.946;2023-08-21T01:43:52;19.90;1.00
5842;DHT22;2947;52.276;9.946;2023-08-21T01:46:17;19.80;1.00
5842;DHT22;2947;52.276;9.946;2023-08-21T01:48:43;20.00;1.00
5842;DHT22;2947;52.276;9.946;2023-08-21T01:51:09;20.80;1.00
5842;DHT22;2947;52.276;9.946;2023-08-21T01:53:34;19.70;8.60
5842;DHT22;2947;52.276;9.946;2023-08-21T01:56:00;19.70;6.50
5842;DHT22;2947;52.276;9.946;2023-08-21T01:58:26;19.30;1.00
5842;DHT22;2947;52.276;9.946;2023-08-21T02:00:52;19.70;1.00
5842;DHT22;2947;52.276;9.946;2023-08-21T02:03:17;19.70;1.00
5842;DHT22;2947;52.276;9.946;2023-08-21T02:05:43;19.70;1.00
5842;DHT22;2947;52.276;9.946;2023-08-21T02:08:12;19.60;1.00
5842;DHT22;2947;52.276;9.946;2023-08-21T02:10:49;19.60;1.00
5842;DHT22;2947;52.276;9.946;2023-08-21T02:13:16;19.50;1.00
5842;DHT22;2947;52.276;9.946;2023-08-21T02:15:42;20.90;1.00
5842;DHT22;2947;52.276;9.946;2023-08-21T02:18:08;19.50;1.00
5842;DHT22;2947;52.276;9.946;2023-08-21T02:20:33;19.50;1.00
5842;DHT22;2947;52.276;9.946;2023-08-21T02:22:59;19.50;1.00
5842;DHT22;2947;52.276;9.946;2023-08-21T02:25:24;19.50;1.00
5842;DHT22;2947;52.276;9.946;2023-08-21T02:27:50;19.50;1.00
5842;DHT22;2947;52.276;9.946;2023-08-21T02:30:16;19.50;1.00
5842;DHT22;2947;52.276;9.946;2023-08-21T02:32:42;19.50;1.00
5842;DHT22;2947;52.276;9.946;2023-08-21T02:35:08;19.50;1.00
5842;DHT22;2947;52.276;9.946;2023-08-21T02:37:35;19.50;99.90
5842;DHT22;2947;52.276;9.946;2023-08-21T02:40:05;19.50;99.90
5842;DHT22;2947;52.276;9.946;2023-08-21T02:42:33;19.50;99.90
5842;DHT22;2947;52.276;9.946;2023-08-21T02:44:59;19.60;99.90
5842;DHT22;2947;52.276;9.946;2023-08-21T02:47:24;19.40;99.90
5842;DHT22;2947;52.276;9.946;2023-08-21T02:49:50;19.50;99.90
5842;DHT22;2947;52.276;9.946;2023-08-21T02:52:17;19.50;99.90
5842;DHT22;2947;52.276;9.946;2023-08-21T02:54:43;19.50;99.90
5842;DHT22;2947;52.276;9.946;2023-08-21T02:57:09;19.50;99.90
5842;DHT22;2947;52.276;9.946;2023-08-21T02:59:34;19.40;99.90
5842;DHT22;2947;52.276;9.946;2023-08-21T03:02:00;19.40;99.90
5842;DHT22;2947;52.276;9.946;2023-08-21T03:04:26;19.40;99.90
5842;DHT22;2947;52.276;9.946;2023-08-21T03:06:51;19.40;99.90
5842;DHT22;2947;52.276;9.946;2023-08-21T03:09:17;20.00;99.90
5842;DHT22;2947;52.276;9.946;2023-08-21T03:11:43;19.40;99.90
5842;DHT22;2947;52.276;9.946;2023-08-21T03:14:08;19.40;99.90
5842;DHT22;2947;52.276;9.946;2023-08-21T03:16:34;19.40;99.90
5842;DHT22;2947;52.276;9.946;2023-08-21T03:19:00;19.40;99.90
5842;DHT22;2947;52.276;9.946;2023-08-21T03:21:26;19.30;99.90
5842;DHT22;2947;52.276;9.946;2023-08-21T03:23:55;19.40;1.00
5842;DHT22;2947;52.276;9.946;2023-08-21T03:26:23;19.30;1.00
5842;DHT22;2947;52.276;9.946;2023-08-21T03:28:49;19.30;1.00
5842;DHT22;2947;52.276;9.946;2023-08-21T03:31:15;19.30;1.00
5842;DHT22;2947;52.276;9.946;2023-08-21T03:33:41;19.30;1.00
5842;DHT22;2947;52.276;9.946;2023-08-21T03:36:08;19.20;1.00
5842;DHT22;2947;52.276;9.946;2023-08-21T03:38:34;19.20;1.00
5842;DHT22;2947;52.276;9.946;2023-08-21T03:41:00;20.20;1.00
5842;DHT22;2947;52.276;9.946;2023-08-21T03:43:25;19.20;1.00
5842;DHT22;2947;52.276;9.946;2023-08-21T03:45:51;20.10;1.00
5842;DHT22;2947;52.276;9.946;2023-08-21T03:48:17;19.00;1.00
5842;DHT22;2947;52.276;9.946;2023-08-21T03:50:42;19.10;1.00
5842;DHT22;2947;52.276;9.946;2023-08-21T03:53:08;19.90;1.00
5842;DHT22;2947;52.276;9.946;2023-08-21T03:55:34;19.00;1.00
5842;DHT22;2947;52.276;9.946;2023-08-21T03:58:00;19.00;1.00
5842;DHT22;2947;52.276;9.946;2023-08-21T04:00:26;19.30;1.00
5842;DHT22;2947;52.276;9.946;2023-08-21T04:02:51;19.20;1.00
5842;DHT22;2947;52.276;9.946;2023-08-21T04:05:17;18.80;23.80
5842;DHT22;2947;52.276;9.946;2023-08-21T04:07:43;18.70;68.00
5842;DHT22;2947;52.276;9.946;2023-08-21T04:10:09;17.90;87.50
5842;DHT22;2947;52.276;9.946;2023-08-21T04:12:35;18.50;59.90
5842;DHT22;2947;52.276;9.946;2023-08-21T04:15:00;19.80;54.30
5842;DHT22;2947;52.276;9.946;2023-08-21T04:17:26;18.40;99.90
5842;DHT22;2947;52.276;9.946;2023-08-21T04:19:52;18.30;99.90
5842;DHT22;2947;52.276;9.946;2023-08-21T04:22:18;18.30;99.90
5842;DHT22;2947;52.276;9.946;2023-08-21T04:24:44;18.40;99.90
5842;DHT22;2947;52.276;9.946;2023-08-21T04:27:09;18.40;99.90
5842;DHT22;2947;52.276;9.946;2023-08-21T04:29:36;18.50;69.60
5842;DHT22;2947;52.276;9.946;2023-08-21T04:32:01;18.50;53.30
5842;DHT22;2947;52.276;9.946;2023-08-21T04:34:27;18.50;52.30
5842;DHT22;2947;52.276;9.946;2023-08-21T04:36:53;18.50;74.90
5842;DHT22;2947;52.276;9.946;2023-08-21T04:39:19;18.40;84.90
5842;DHT22;2947;52.276;9.946;2023-08-21T04:41:44;18.50;95.10
5842;DHT22;2947;52.276;9.946;2023-08-21T04:44:10;18.50;95.90
5842;DHT22;2947;52.276;9.946;2023-08-21T04:46:36;18.50;96.40
5842;DHT22;2947;52.276;9.946;2023-08-21T04:49:02;18.50;99.90
5842;DHT22;2947;52.276;9.946;2023-08-21T04:51:28;18.50;99.90
5842;DHT22;2947;52.276;9.946;2023-08-21T04:53:53;20.70;99.90
5842;DHT22;2947;52.276;9.946;2023-08-21T04:56:19;18.60;99.90
5842;DHT22;2947;52.276;9.946;2023-08-21T04:58:45;18.60;99.90
5842;DHT22;2947;52.276;9.946;2023-08-21T05:01:11;18.60;99.50
5842;DHT22;2947;52.276;9.946;2023-08-21T05:03:37;18.70;82.30
5842;DHT22;2947;52.276;9.946;2023-08-21T05:06:03;18.80;96.60
5842;DHT22;2947;52.276;9.946;2023-08-21T05:08:28;18.80;68.70
5842;DHT22;2947;52.276;9.946;2023-08-21T05:11:03;18.90;68.70
5842;DHT22;2947;52.276;9.946;2023-08-21T05:13:29;18.90;51.70
5842;DHT22;2947;52.276;9.946;2023-08-21T05:15:58;18.90;59.90
5842;DHT22;2947;52.276;9.946;2023-08-21T05:18:25;18.90;89.40
5842;DHT22;2947;52.276;9.946;2023-08-21T05:20:53;19.00;91.10
5842;DHT22;2947;52.276;9.946;2023-08-21T05:23:19;19.10;84.90
5842;DHT22;2947;52.276;9.946;2023-08-21T05:25:46;19.10;79.30
5842;DHT22;2947;52.276;9.946;2023-08-21T05:28:13;19.20;47.50
5842;DHT22;2947;52.276;9.946;2023-08-21T05:30:38;19.20;53.80
5842;DHT22;2947;52.276;9.946;2023-08-21T05:33:05;19.20;50.00
5842;DHT22;2947;52.276;9.946;2023-08-21T05:35:35;19.30;42.30
5842;DHT22;2947;52.276;9.946;2023-08-21T05:38:02;19.50;29.40
5842;DHT22;2947;52.276;9.946;2023-08-21T05:40:28;19.40;8.90
5842;DHT22;2947;52.276;9.946;2023-08-21T05:42:54;19.40;33.60
5842;DHT22;2947;52.276;9.946;2023-08-21T05:45:20;19.40;38.00
5842;DHT22;2947;52.276;9.946;2023-08-21T05:47:46;19.40;25.40
5842;DHT22;2947;52.276;9.946;2023-08-21T05:50:11;19.40;1.00
5842;DHT22;2947;52.276;9.946;2023-08-21T05:52:37;19.40;1.00
5842;DHT22;2947;52.276;9.946;2023-08-21T05:55:04;19.60;1.00
5842;DHT22;2947;52.276;9.946;2023-08-21T05:57:30;19.60;1.00
5842;DHT22;2947;52.276;9.946;2023-08-21T05:59:56;19.70;1.00
5842;DHT22;2947;52.276;9.946;2023-08-21T06:02:22;19.80;1.00
5842;DHT22;2947;52.276;9.946;2023-08-21T06:04:47;20.90;1.00
5842;DHT22;2947;52.276;9.946;2023-08-21T06:07:13;20.00;1.00
5842;DHT22;2947;52.276;9.946;2023-08-21T06:09:40;20.10;1.00
5842;DHT22;2947;52.276;9.946;2023-08-21T06:12:06;21.50;1.00
5842;DHT22;2947;52.276;9.946;2023-08-21T06:14:32;20.30;1.00
5842;DHT22;2947;52.276;9.946;2023-08-21T06:17:00;22.70;1.00
5842;DHT22;2947;52.276;9.946;2023-08-21T06:19:27;21.30;1.00
5842;DHT22;2947;52.276;9.946;2023-08-21T06:21:55;20.70;1.00
5842;DHT22;2947;52.276;9.946;2023-08-21T06:24:21;20.80;1.00
5842;DHT22;2947;52.276;9.946;2023-08-21T06:26:47;20.90;1.00
5842;DHT22;2947;52.276;9.946;2023-08-21T06:29:13;21.00;1.00
5842;DHT22;2947;52.276;9.946;2023-08-21T06:31:40;20.90;99.90
5842;DHT22;2947;52.276;9.946;2023-08-21T06:34:05;21.10;99.90
5842;DHT22;2947;52.276;9.946;2023-08-21T06:36:31;21.20;99.90
5842;DHT22;2947;52.276;9.946;2023-08-21T06:38:57;22.20;99.90
5842;DHT22;2947;52.276;9.946;2023-08-21T06:41:22;21.30;99.90
5842;DHT22;2947;52.276;9.946;2023-08-21T06:43:49;21.50;99.90
5842;DHT22;2947;52.276;9.946;2023-08-21T06:46:15;21.70;99.90
5842;DHT22;2947;52.276;9.946;2023-08-21T06:48:42;21.70;1.00
5842;DHT22;2947;52.276;9.946;2023-08-21T06:51:08;21.80;99.90
5842;DHT22;2947;52.276;9.946;2023-08-21T06:53:35;21.90;99.90
5842;DHT22;2947;52.276;9.946;2023-08-21T06:56:00;22.10;1.00
5842;DHT22;2947;52.276;9.946;2023-08-21T06:58:26;22.10;1.00
5842;DHT22;2947;52.276;9.946;2023-08-21T07:00:55;23.60;99.90
5842;DHT22;2947;52.276;9.946;2023-08-21T07:03:22;22.30;1.00
5842;DHT22;2947;52.276;9.946;2023-08-21T07:05:57;22.30;5.60
5842;DHT22;2947;52.276;9.946;2023-08-21T07:08:24;22.40;99.90
5842;DHT22;2947;52.276;9.946;2023-08-21T07:10:50;23.80;99.90
5842;DHT22;2947;52.276;9.946;2023-08-21T07:13:16;22.60;3.60
5842;DHT22;2947;52.276;9.946;2023-08-21T07:15:42;22.40;99.90
5842;DHT22;2947;52.276;9.946;2023-08-21T07:18:08;22.60;17.80
5842;DHT22;2947;52.276;9.946;2023-08-21T07:20:33;22.70;1.00
5842;DHT22;2947;52.276;9.946;2023-08-21T07:23:00;24.20;99.90
5842;DHT22;2947;52.276;9.946;2023-08-21T07:25:25;22.70;99.90
5842;DHT22;2947;52.276;9.946;2023-08-21T07:27:51;22.80;99.90
5842;DHT22;2947;52.276;9.946;2023-08-21T07:30:20;23.40;99.90
5842;DHT22;2947;52.276;9.946;2023-08-21T07:32:47;22.80;99.90
5842;DHT22;2947;52.276;9.946;2023-08-21T07:35:13;22.80;99.90
5842;DHT22;2947;52.276;9.946;2023-08-21T07:37:43;22.80;99.90
5842;DHT22;2947;52.276;9.946;2023-08-21T07:40:09;22.90;86.60
5842;DHT22;2947;52.276;9.946;2023-08-21T07:42:35;22.90;1.00
5842;DHT22;2947;52.276;9.946;2023-08-21T07:45:00;23.20;99.90
5842;DHT22;2947;52.276;9.946;2023-08-21T07:47:29;23.00;99.90
5842;DHT22;2947;52.276;9.946;2023-08-21T07:49:56;23.20;99.90
5842;DHT22;2947;52.276;9.946;2023-08-21T07:52:22;23.30;99.90
5842;DHT22;2947;52.276;9.946;2023-08-21T07:54:52;23.30;99.90
5842;DHT22;2947;52.276;9.946;2023-08-21T07:57:18;23.30;99.90
5842;DHT22;2947;52.276;9.946;2023-08-21T07:59:44;23.50;99.90
5842;DHT22;2947;52.276;9.946;2023-08-21T08:02:10;23.60;1.00
5842;DHT22;2947;52.276;9.946;2023-08-21T08:04:39;23.60;1.00
5842;DHT22;2947;52.276;9.946;2023-08-21T08:07:05;23.50;1.00
5842;DHT22;2947;52.276;9.946;2023-08-21T08:09:30;23.60;1.00
5842;DHT22;2947;52.276;9.946;2023-08-21T08:11:56;23.40;1.00
5842;DHT22;2947;52.276;9.946;2023-08-21T08:14:22;23.50;1.00
5842;DHT22;2947;52.276;9.946;2023-08-21T08:16:48;23.50;1.00
5842;DHT22;2947;52.276;9.946;2023-08-21T08:19:13;23.60;1.00
5842;DHT22;2947;52.276;9.946;2023-08-21T08:21:39;23.60;1.00
5842;DHT22;2947;52.276;9.946;2023-08-21T08:24:05;23.70;1.00
5842;DHT22;2947;52.276;9.946;2023-08-21T08:26:30;23.70;1.00
5842;DHT22;2947;52.276;9.946;2023-08-21T08:28:56;23.80;1.00
5842;DHT22;2947;52.276;9.946;2023-08-21T08:31:22;23.80;1.00
5842;DHT22;2947;52.276;9.946;2023-08-21T08:33:49;23.90;1.00
5842;DHT22;2947;52.276;9.946;2023-08-21T08:36:14;24.00;1.00
5842;DHT22;2947;52.276;9.946;2023-08-21T08:38:40;23.90;1.00
5842;DHT22;2947;52.276;9.946;2023-08-21T08:41:11;24.00;1.00
5842;DHT22;2947;52.276;9.946;2023-08-21T08:43:44;24.00;1.00
5842;DHT22;2947;52.276;9.946;2023-08-21T08:46:11;24.10;1.00
5842;DHT22;2947;52.276;9.946;2023-08-21T08:48:37;24.20;1.00
5842;DHT22;2947;52.276;9.946;2023-08-21T08:51:04;24.20;1.00
5842;DHT22;2947;52.276;9.946;2023-08-21T08:53:30;24.10;1.00
5842;DHT22;2947;52.276;9.946;2023-08-21T08:55:57;24.30;1.00
5842;DHT22;2947;52.276;9.946;2023-08-21T08:58:23;24.30;1.00
5842;DHT22;2947;52.276;9.946;2023-08-21T09:00:49;24.50;1.00
5842;DHT22;2947;52.276;9.946;2023-08-21T09:03:15;24.60;1.00
5842;DHT22;2947;52.276;9.946;2023-08-21T09:05:41;24.80;1.00
5842;DHT22;2947;52.276;9.946;2023-08-21T09:10:37;25.00;1.00
5842;DHT22;2947;52.276;9.946;2023-08-21T09:13:13;25.00;1.00
5842;DHT22;2947;52.276;9.946;2023-08-21T09:15:43;25.10;1.00
5842;DHT22;2947;52.276;9.946;2023-08-21T09:18:13;25.30;1.00
5842;DHT22;2947;52.276;9.946;2023-08-21T09:20:40;25.40;99.90
5842;DHT22;2947;52.276;9.946;2023-08-21T09:23:07;25.50;99.90
5842;DHT22;2947;52.276;9.946;2023-08-21T09:25:38;25.70;99.90
5842;DHT22;2947;52.276;9.946;2023-08-21T09:28:05;25.60;99.90
5842;DHT22;2947;52.276;9.946;2023-08-21T09:30:52;26.00;99.90
5842;DHT22;2947;52.276;9.946;2023-08-21T09:33:23;26.00;99.90
5842;DHT22;2947;52.276;9.946;2023-08-21T09:35:52;26.20;99.90
5842;DHT22;2947;52.276;9.946;2023-08-21T09:38:18;26.20;99.90
5842;DHT22;2947;52.276;9.946;2023-08-21T09:40:54;26.40;99.90
5842;DHT22;2947;52.276;9.946;2023-08-21T09:43:21;26.50;99.90
5842;DHT22;2947;52.276;9.946;2023-08-21T09:45:48;26.60;99.90
5842;DHT22;2947;52.276;9.946;2023-08-21T09:48:18;26.90;99.90
5842;DHT22;2947;52.276;9.946;2023-08-21T09:50:46;27.00;99.90
5842;DHT22;2947;52.276;9.946;2023-08-21T09:53:12;27.10;99.90
5842;DHT22;2947;52.276;9.946;2023-08-21T09:55:39;27.20;99.90
5842;DHT22;2947;52.276;9.946;2023-08-21T09:58:06;27.20;99.90
5842;DHT22;2947;52.276;9.946;2023-08-21T10:00:34;27.30;99.90
5842;DHT22;2947;52.276;9.946;2023-08-21T10:03:04;27.40;99.90
5842;DHT22;2947;52.276;9.946;2023-08-21T10:05:34;27.30;99.90
5842;DHT22;2947;52.276;9.946;2023-08-21T10:08:03;27.30;99.90
5842;DHT22;2947;52.276;9.946;2023-08-21T10:10:31;27.50;99.90
5842;DHT22;2947;52.276;9.946;2023-08-21T10:12:59;27.00;99.90
5842;DHT22;2947;52.276;9.946;2023-08-21T10:15:33;27.10;99.90
5842;DHT22;2947;52.276;9.946;2023-08-21T10:18:23;27.20;99.90
5842;DHT22;2947;52.276;9.946;2023-08-21T10:20:50;27.00;99.90
5842;DHT22;2947;52.276;9.946;2023-08-21T10:25:59;27.10;99.90
5842;DHT22;2947;52.276;9.946;2023-08-21T10:29:02;27.30;99.90
5842;DHT22;2947;52.276;9.946;2023-08-21T10:31:32;27.50;99.90
5842;DHT22;2947;52.276;9.946;2023-08-21T10:34:08;28.40;99.90
5842;DHT22;2947;52.276;9.946;2023-08-21T10:39:31;27.50;99.90
5842;DHT22;2947;52.276;9.946;2023-08-21T10:42:04;29.00;99.90
5842;DHT22;2947;52.276;9.946;2023-08-21T10:44:38;26.20;99.90
5842;DHT22;2947;52.276;9.946;2023-08-21T10:49:53;27.50;99.90
5842;DHT22;2947;52.276;9.946;2023-08-21T10:52:27;27.60;99.90
5842;DHT22;2947;52.276;9.946;2023-08-21T10:55:01;27.60;99.90
5842;DHT22;2947;52.276;9.946;2023-08-21T10:57:30;27.50;99.90
5842;DHT22;2947;52.276;9.946;2023-08-21T11:00:05;27.60;99.90
5842;DHT22;2947;52.276;9.946;2023-08-21T11:02:35;27.50;99.90
5842;DHT22;2947;52.276;9.946;2023-08-21T11:05:07;27.50;99.90
5842;DHT22;2947;52.276;9.946;2023-08-21T11:07:41;27.50;99.90
5842;DHT22;2947;52.276;9.946;2023-08-21T11:10:13;27.50;99.90
5842;DHT22;2947;52.276;9.946;2023-08-21T11:12:57;27.70;99.90
5842;DHT22;2947;52.276;9.946;2023-08-21T11:15:27;27.80;99.90
5842;DHT22;2947;52.276;9.946;2023-08-21T11:17:55;27.70;99.90
5842;DHT22;2947;52.276;9.946;2023-08-21T11:20:26;27.90;99.90
5842;DHT22;2947;52.276;9.946;2023-08-21T11:23:01;28.10;99.90
5842;DHT22;2947;52.276;9.946;2023-08-21T11:25:29;27.90;99.90
5842;DHT22;2947;52.276;9.946;2023-08-21T11:27:55;28.20;99.90
5842;DHT22;2947;52.276;9.946;2023-08-21T11:30:24;29.30;99.90
5842;DHT22;2947;52.276;9.946;2023-08-21T11:33:05;28.10;99.90
5842;DHT22;2947;52.276;9.946;2023-08-21T11:35:31;28.30;99.90
5842;DHT22;2947;52.276;9.946;2023-08-21T11:37:57;27.70;99.90
5842;DHT22;2947;52.276;9.946;2023-08-21T11:40:23;30.00;99.90
5842;DHT22;2947;52.276;9.946;2023-08-21T11:42:51;29.00;99.90
5842;DHT22;2947;52.276;9.946;2023-08-21T11:45:20;28.90;99.90
5842;DHT22;2947;52.276;9.946;2023-08-21T11:47:47;29.20;99.90
5842;DHT22;2947;52.276;9.946;2023-08-21T11:50:14;30.10;99.90
5842;DHT22;2947;52.276;9.946;2023-08-21T11:52:43;30.00;99.90
5842;DHT22;2947;52.276;9.946;2023-08-21T11:55:09;29.00;99.90
5842;DHT22;2947;52.276;9.946;2023-08-21T11:57:48;29.10;99.90
5842;DHT22;2947;52.276;9.946;2023-08-21T12:00:14;29.10;99.90
5842;DHT22;2947;52.276;9.946;2023-08-21T12:02:54;29.10;99.90
5842;DHT22;2947;52.276;9.946;2023-08-21T12:05:21;29.20;99.90
5842;DHT22;2947;52.276;9.946;2023-08-21T12:07:47;29.00;99.90
5842;DHT22;2947;52.276;9.946;2023-08-21T12:10:13;29.50;99.90
5842;DHT22;2947;52.276;9.946;2023-08-21T12:12:38;29.20;99.90
5842;DHT22;2947;52.276;9.946;2023-08-21T12:15:05;29.10;99.90
5842;DHT22;2947;52.276;9.946;2023-08-21T12:17:31;27.90;99.90
5842;DHT22;2947;52.276;9.946;2023-08-21T12:19:57;28.60;99.90
5842;DHT22;2947;52.276;9.946;2023-08-21T12:22:22;29.30;99.90
5842;DHT22;2947;52.276;9.946;2023-08-21T12:24:48;28.70;99.90
5842;DHT22;2947;52.276;9.946;2023-08-21T12:27:14;28.50;99.90
5842;DHT22;2947;52.276;9.946;2023-08-21T12:29:41;28.50;99.90
5842;DHT22;2947;52.276;9.946;2023-08-21T12:32:06;28.50;99.90
5842;DHT22;2947;52.276;9.946;2023-08-21T12:34:32;28.30;99.90
5842;DHT22;2947;52.276;9.946;2023-08-21T12:36:58;28.30;99.90
5842;DHT22;2947;52.276;9.946;2023-08-21T12:39:23;28.30;99.90
5842;DHT22;2947;52.276;9.946;2023-08-21T12:41:49;28.60;99.90
5842;DHT22;2947;52.276;9.946;2023-08-21T12:44:15;28.10;99.90
5842;DHT22;2947;52.276;9.946;2023-08-21T12:46:40;28.00;99.90
5842;DHT22;2947;52.276;9.946;2023-08-21T12:49:06;28.10;99.90
5842;DHT22;2947;52.276;9.946;2023-08-21T12:51:32;28.10;99.90
5842;DHT22;2947;52.276;9.946;2023-08-21T12:53:58;28.20;99.90
5842;DHT22;2947;52.276;9.946;2023-08-21T12:56:24;28.10;99.90
5842;DHT22;2947;52.276;9.946;2023-08-21T12:58:49;28.10;99.90
5842;DHT22;2947;52.276;9.946;2023-08-21T13:01:15;28.20;99.90
5842;DHT22;2947;52.276;9.946;2023-08-21T13:03:47;28.00;99.90
5842;DHT22;2947;52.276;9.946;2023-08-21T13:06:16;27.90;99.90
5842;DHT22;2947;52.276;9.946;2023-08-21T13:08:41;28.00;99.90
5842;DHT22;2947;52.276;9.946;2023-08-21T13:11:07;28.40;99.90
5842;DHT22;2947;52.276;9.946;2023-08-21T13:13:34;27.70;99.90
5842;DHT22;2947;52.276;9.946;2023-08-21T13:15:59;27.70;99.90
5842;DHT22;2947;52.276;9.946;2023-08-21T13:18:26;27.80;99.90
5842;DHT22;2947;52.276;9.946;2023-08-21T13:20:51;27.80;99.90
5842;DHT22;2947;52.276;9.946;2023-08-21T13:23:17;27.70;99.90
5842;DHT22;2947;52.276;9.946;2023-08-21T13:25:43;27.80;99.90
5842;DHT22;2947;52.276;9.946;2023-08-21T13:28:09;27.90;99.90
5842;DHT22;2947;52.276;9.946;2023-08-21T13:30:36;27.70;99.90
5842;DHT22;2947;52.276;9.946;2023-08-21T13:33:02;28.60;99.90
5842;DHT22;2947;52.276;9.946;2023-08-21T13:35:30;27.70;99.90
5842;DHT22;2947;52.276;9.946;2023-08-21T13:37:56;27.70;99.90
5842;DHT22;2947;52.276;9.946;2023-08-21T13:40:23;27.90;99.90
5842;DHT22;2947;52.276;9.946;2023-08-21T13:42:51;27.70;99.90
5842;DHT22;2947;52.276;9.946;2023-08-21T13:45:18;28.00;99.90
5842;DHT22;2947;52.276;9.946;2023-08-21T13:47:46;27.40;99.90
5842;DHT22;2947;52.276;9.946;2023-08-21T13:50:13;27.50;99.90
5842;DHT22;2947;52.276;9.946;2023-08-21T13:52:41;27.50;99.90
5842;DHT22;2947;52.276;9.946;2023-08-21T13:55:08;27.20;99.90
5842;DHT22;2947;52.276;9.946;2023-08-21T13:57:36;27.00;99.90
5842;DHT22;2947;52.276;9.946;2023-08-21T14:00:04;27.00;99.90
5842;DHT22;2947;52.276;9.946;2023-08-21T14:02:38;27.00;99.90
5842;DHT22;2947;52.276;9.946;2023-08-21T14:05:06;27.00;99.90
5842;DHT22;2947;52.276;9.946;2023-08-21T14:07:33;27.00;99.90
5842;DHT22;2947;52.276;9.946;2023-08-21T14:09:59;27.10;99.90
5842;DHT22;2947;52.276;9.946;2023-08-21T14:12:27;27.10;99.90
5842;DHT22;2947;52.276;9.946;2023-08-21T14:14:54;27.20;99.90
5842;DHT22;2947;52.276;9.946;2023-08-21T14:17:20;27.20;99.90
5842;DHT22;2947;52.276;9.946;2023-08-21T14:19:46;27.00;99.90
5842;DHT22;2947;52.276;9.946;2023-08-21T14:22:11;27.00;99.90
5842;DHT22;2947;52.276;9.946;2023-08-21T14:24:37;27.10;99.90
5842;DHT22;2947;52.276;9.946;2023-08-21T14:27:03;26.60;99.90
5842;DHT22;2947;52.276;9.946;2023-08-21T14:29:28;27.00;99.90
5842;DHT22;2947;52.276;9.946;2023-08-21T14:31:54;27.00;99.90
5842;DHT22;2947;52.276;9.946;2023-08-21T14:34:20;27.00;99.90
5842;DHT22;2947;52.276;9.946;2023-08-21T14:36:47;25.70;99.90
5842;DHT22;2947;52.276;9.946;2023-08-21T14:39:13;27.30;99.90
5842;DHT22;2947;52.276;9.946;2023-08-21T14:41:43;26.60;99.90
5842;DHT22;2947;52.276;9.946;2023-08-21T14:44:10;26.70;99.90
5842;DHT22;2947;52.276;9.946;2023-08-21T14:46:36;28.00;99.90
5842;DHT22;2947;52.276;9.946;2023-08-21T14:49:02;26.70;99.90
5842;DHT22;2947;52.276;9.946;2023-08-21T14:51:27;26.60;99.90
5842;DHT22;2947;52.276;9.946;2023-08-21T14:53:53;27.30;99.90
5842;DHT22;2947;52.276;9.946;2023-08-21T14:56:20;26.80;99.90
5842;DHT22;2947;52.276;9.946;2023-08-21T14:58:46;26.70;99.90
5842;DHT22;2947;52.276;9.946;2023-08-21T15:01:12;26.70;99.90
5842;DHT22;2947;52.276;9.946;2023-08-21T15:03:38;26.70;99.90
5842;DHT22;2947;52.276;9.946;2023-08-21T15:06:04;26.60;99.90
5842;DHT22;2947;52.276;9.946;2023-08-21T15:08:30;26.60;99.90
5842;DHT22;2947;52.276;9.946;2023-08-21T15:10:55;26.70;99.90
5842;DHT22;2947;52.276;9.946;2023-08-21T15:13:21;26.70;99.90
5842;DHT22;2947;52.276;9.946;2023-08-21T15:15:47;26.60;99.90
5842;DHT22;2947;52.276;9.946;2023-08-21T15:18:13;26.70;99.90
5842;DHT22;2947;52.276;9.946;2023-08-21T15:20:38;26.70;99.90
5842;DHT22;2947;52.276;9.946;2023-08-21T15:23:05;27.30;99.90
5842;DHT22;2947;52.276;9.946;2023-08-21T15:25:31;26.70;99.90
5842;DHT22;2947;52.276;9.946;2023-08-21T15:27:56;26.60;99.90
5842;DHT22;2947;52.276;9.946;2023-08-21T15:30:22;26.60;99.90
5842;DHT22;2947;52.276;9.946;2023-08-21T15:32:48;27.30;99.90
5842;DHT22;2947;52.276;9.946;2023-08-21T15:35:14;26.60;99.90
5842;DHT22;2947;52.276;9.946;2023-08-21T15:37:40;26.60;99.90
5842;DHT22;2947;52.276;9.946;2023-08-21T15:40:07;26.50;99.90
5842;DHT22;2947;52.276;9.946;2023-08-21T15:42:33;26.50;99.90
5842;DHT22;2947;52.276;9.946;2023-08-21T15:44:59;26.60;99.90
5842;DHT22;2947;52.276;9.946;2023-08-21T15:47:25;26.50;99.90
5842;DHT22;2947;52.276;9.946;2023-08-21T15:49:50;27.40;99.90
5842;DHT22;2947;52.276;9.946;2023-08-21T15:52:16;26.30;99.90
5842;DHT22;2947;52.276;9.946;2023-08-21T15:54:42;27.20;99.90
5842;DHT22;2947;52.276;9.946;2023-08-21T15:57:08;26.20;99.90
5842;DHT22;2947;52.276;9.946;2023-08-21T15:59:33;26.30;99.90
5842;DHT22;2947;52.276;9.946;2023-08-21T16:01:59;26.30;99.90
5842;DHT22;2947;52.276;9.946;2023-08-21T16:04:25;26.40;99.90
5842;DHT22;2947;52.276;9.946;2023-08-21T16:06:51;26.40;99.90
5842;DHT22;2947;52.276;9.946;2023-08-21T16:09:17;26.50;99.90
5842;DHT22;2947;52.276;9.946;2023-08-21T16:11:46;26.40;99.90
5842;DHT22;2947;52.276;9.946;2023-08-21T16:14:12;26.40;99.90
5842;DHT22;2947;52.276;9.946;2023-08-21T16:16:39;26.40;99.90
5842;DHT22;2947;52.276;9.946;2023-08-21T16:19:05;26.40;99.90
5842;DHT22;2947;52.276;9.946;2023-08-21T16:21:31;26.40;99.90
5842;DHT22;2947;52.276;9.946;2023-08-21T16:23:56;26.40;99.90